sensor_id;sensor_type;location;lat;lon;timestamp;P1;durP1;ratioP1;P2;durP2;ratioP2
11141;SDS011;5625;50.122;19.864;2022-09-29T00:01:09;9.73;;;8.83;;
11141;SDS011;5625;50.122;19.864;2022-09-29T00:03:38;9.30;;;8.30;;
11141;SDS011;5625;50.122;19.864;2022-09-29T00:06:10;9.43;;;8.40;;
11141;SDS011;5625;50.122;19.864;2022-09-29T00:08:40;10.17;;;9.17;;
11141;SDS011;5625;50.122;19.864;2022-09-29T00:11:09;10.33;;;9.33;;
11141;SDS011;5625;50.122;19.864;2022-09-29T00:13:41;10.87;;;9.77;;
11141;SDS011;5625;50.122;19.864;2022-09-29T00:16:09;10.63;;;9.53;;
11141;SDS011;5625;50.122;19.864;2022-09-29T00:18:38;11.37;;;10.27;;
11141;SDS011;5625;50.122;19.864;2022-09-29T00:21:08;11.57;;;10.37;;
11141;SDS011;5625;50.122;19.864;2022-09-29T00:23:38;11.23;;;10.10;;
11141;SDS011;5625;50.122;19.864;2022-09-29T00:26:06;11.27;;;9.40;;
11141;SDS011;5625;50.122;19.864;2022-09-29T00:28:36;11.20;;;9.97;;
11141;SDS011;5625;50.122;19.864;2022-09-29T00:31:07;11.40;;;10.30;;
11141;SDS011;5625;50.122;19.864;2022-09-29T00:33:37;11.00;;;9.83;;
11141;SDS011;5625;50.122;19.864;2022-09-29T00:36:07;10.03;;;9.03;;
11141;SDS011;5625;50.122;19.864;2022-09-29T00:38:37;11.70;;;9.73;;
11141;SDS011;5625;50.122;19.864;2022-09-29T00:41:06;9.83;;;8.83;;
11141;SDS011;5625;50.122;19.864;2022-09-29T00:43:53;10.57;;;9.47;;
11141;SDS011;5625;50.122;19.864;2022-09-29T00:46:27;11.17;;;10.07;;
11141;SDS011;5625;50.122;19.864;2022-09-29T00:49:08;12.00;;;9.90;;
11141;SDS011;5625;50.122;19.864;2022-09-29T00:51:44;10.13;;;9.13;;
11141;SDS011;5625;50.122;19.864;2022-09-29T00:54:16;10.70;;;9.60;;
11141;SDS011;5625;50.122;19.864;2022-09-29T00:56:45;10.40;;;9.17;;
11141;SDS011;5625;50.122;19.864;2022-09-29T00:59:16;11.80;;;10.13;;
11141;SDS011;5625;50.122;19.864;2022-09-29T01:01:51;11.07;;;9.93;;
11141;SDS011;5625;50.122;19.864;2022-09-29T01:04:20;12.60;;;10.57;;
11141;SDS011;5625;50.122;19.864;2022-09-29T01:06:49;12.63;;;10.00;;
11141;SDS011;5625;50.122;19.864;2022-09-29T01:09:22;11.37;;;10.13;;
11141;SDS011;5625;50.122;19.864;2022-09-29T01:11:53;10.80;;;9.80;;
11141;SDS011;5625;50.122;19.864;2022-09-29T01:14:23;11.87;;;10.67;;
11141;SDS011;5625;50.122;19.864;2022-09-29T01:16:55;12.90;;;10.37;;
11141;SDS011;5625;50.122;19.864;2022-09-29T01:19:27;10.37;;;9.33;;
11141;SDS011;5625;50.122;19.864;2022-09-29T01:22:04;10.37;;;9.33;;
11141;SDS011;5625;50.122;19.864;2022-09-29T01:27:40;10.43;;;9.43;;
11141;SDS011;5625;50.122;19.864;2022-09-29T01:30:43;10.77;;;9.60;;
11141;SDS011;5625;50.122;19.864;2022-09-29T01:33:23;11.10;;;9.77;;
11141;SDS011;5625;50.122;19.864;2022-09-29T01:36:02;10.03;;;9.10;;
11141;SDS011;5625;50.122;19.864;2022-09-29T01:38:41;11.33;;;8.57;;
11141;SDS011;5625;50.122;19.864;2022-09-29T01:41:26;10.57;;;9.03;;
11141;SDS011;5625;50.122;19.864;2022-09-29T01:44:03;15.23;;;8.83;;
11141;SDS011;5625;50.122;19.864;2022-09-29T01:46:42;10.57;;;8.57;;
11141;SDS011;5625;50.122;19.864;2022-09-29T01:49:14;8.70;;;7.80;;
11141;SDS011;5625;50.122;19.864;2022-09-29T01:51:48;9.23;;;8.33;;
11141;SDS011;5625;50.122;19.864;2022-09-29T01:54:20;8.47;;;7.60;;
11141;SDS011;5625;50.122;19.864;2022-09-29T01:56:54;9.00;;;8.07;;
11141;SDS011;5625;50.122;19.864;2022-09-29T01:59:27;10.27;;;7.73;;
11141;SDS011;5625;50.122;19.864;2022-09-29T02:02:01;9.40;;;7.60;;
11141;SDS011;5625;50.122;19.864;2022-09-29T02:04:36;8.63;;;7.73;;
11141;SDS011;5625;50.122;19.864;2022-09-29T02:07:08;8.50;;;7.50;;
11141;SDS011;5625;50.122;19.864;2022-09-29T02:09:41;8.23;;;7.40;;
11141;SDS011;5625;50.122;19.864;2022-09-29T02:12:13;9.63;;;7.40;;
11141;SDS011;5625;50.122;19.864;2022-09-29T02:14:48;9.10;;;7.53;;
11141;SDS011;5625;50.122;19.864;2022-09-29T02:17:20;9.23;;;8.20;;
11141;SDS011;5625;50.122;19.864;2022-09-29T02:19:52;10.07;;;8.47;;
11141;SDS011;5625;50.122;19.864;2022-09-29T02:22:20;9.67;;;8.67;;
11141;SDS011;5625;50.122;19.864;2022-09-29T02:24:48;10.07;;;8.90;;
11141;SDS011;5625;50.122;19.864;2022-09-29T02:27:21;10.87;;;9.10;;
11141;SDS011;5625;50.122;19.864;2022-09-29T02:29:49;11.90;;;10.17;;
11141;SDS011;5625;50.122;19.864;2022-09-29T02:32:17;13.37;;;10.43;;
11141;SDS011;5625;50.122;19.864;2022-09-29T02:34:48;11.97;;;10.77;;
11141;SDS011;5625;50.122;19.864;2022-09-29T02:37:24;13.93;;;10.67;;
11141;SDS011;5625;50.122;19.864;2022-09-29T02:40:02;12.23;;;10.77;;
11141;SDS011;5625;50.122;19.864;2022-09-29T02:42:43;13.10;;;11.00;;
11141;SDS011;5625;50.122;19.864;2022-09-29T02:45:20;15.20;;;11.37;;
11141;SDS011;5625;50.122;19.864;2022-09-29T02:48:02;13.60;;;11.57;;
11141;SDS011;5625;50.122;19.864;2022-09-29T02:50:49;13.40;;;12.00;;
11141;SDS011;5625;50.122;19.864;2022-09-29T02:53:29;14.17;;;12.37;;
11141;SDS011;5625;50.122;19.864;2022-09-29T02:56:06;14.90;;;12.77;;
11141;SDS011;5625;50.122;19.864;2022-09-29T02:58:46;12.97;;;11.43;;
11141;SDS011;5625;50.122;19.864;2022-09-29T03:01:18;12.10;;;10.73;;
11141;SDS011;5625;50.122;19.864;2022-09-29T03:03:47;14.03;;;11.30;;
11141;SDS011;5625;50.122;19.864;2022-09-29T03:06:16;11.67;;;10.43;;
11141;SDS011;5625;50.122;19.864;2022-09-29T03:08:46;14.77;;;10.60;;
11141;SDS011;5625;50.122;19.864;2022-09-29T03:11:14;10.83;;;9.73;;
11141;SDS011;5625;50.122;19.864;2022-09-29T03:13:42;11.27;;;10.07;;
11141;SDS011;5625;50.122;19.864;2022-09-29T03:16:10;11.83;;;9.70;;
11141;SDS011;5625;50.122;19.864;2022-09-29T03:18:38;10.50;;;9.00;;
11141;SDS011;5625;50.122;19.864;2022-09-29T03:21:08;9.83;;;8.80;;
11141;SDS011;5625;50.122;19.864;2022-09-29T03:23:36;11.07;;;9.17;;
11141;SDS011;5625;50.122;19.864;2022-09-29T03:26:04;10.00;;;8.80;;
11141;SDS011;5625;50.122;19.864;2022-09-29T03:28:32;11.37;;;9.00;;
11141;SDS011;5625;50.122;19.864;2022-09-29T03:31:03;9.60;;;8.60;;
11141;SDS011;5625;50.122;19.864;2022-09-29T03:33:33;10.63;;;9.20;;
11141;SDS011;5625;50.122;19.864;2022-09-29T03:36:02;10.00;;;9.00;;
11141;SDS011;5625;50.122;19.864;2022-09-29T03:38:32;9.53;;;8.63;;
11141;SDS011;5625;50.122;19.864;2022-09-29T03:41:00;9.27;;;8.20;;
11141;SDS011;5625;50.122;19.864;2022-09-29T03:43:30;9.80;;;8.67;;
11141;SDS011;5625;50.122;19.864;2022-09-29T03:45:58;9.47;;;8.40;;
11141;SDS011;5625;50.122;19.864;2022-09-29T03:48:29;10.20;;;8.57;;
11141;SDS011;5625;50.122;19.864;2022-09-29T03:51:00;10.47;;;8.57;;
11141;SDS011;5625;50.122;19.864;2022-09-29T03:53:29;11.07;;;9.53;;
11141;SDS011;5625;50.122;19.864;2022-09-29T03:55:58;10.13;;;9.13;;
11141;SDS011;5625;50.122;19.864;2022-09-29T03:58:26;12.90;;;10.73;;
11141;SDS011;5625;50.122;19.864;2022-09-29T04:00:54;13.10;;;11.80;;
11141;SDS011;5625;50.122;19.864;2022-09-29T04:03:23;13.10;;;11.80;;
11141;SDS011;5625;50.122;19.864;2022-09-29T04:05:51;12.00;;;10.73;;
11141;SDS011;5625;50.122;19.864;2022-09-29T04:08:19;11.83;;;10.60;;
11141;SDS011;5625;50.122;19.864;2022-09-29T04:10:47;13.13;;;10.97;;
11141;SDS011;5625;50.122;19.864;2022-09-29T04:13:16;12.67;;;10.37;;
11141;SDS011;5625;50.122;19.864;2022-09-29T04:15:47;12.07;;;9.80;;
11141;SDS011;5625;50.122;19.864;2022-09-29T04:18:15;12.50;;;9.77;;
11141;SDS011;5625;50.122;19.864;2022-09-29T04:20:43;10.83;;;9.80;;
11141;SDS011;5625;50.122;19.864;2022-09-29T04:23:11;10.60;;;9.33;;
11141;SDS011;5625;50.122;19.864;2022-09-29T04:25:39;11.37;;;9.97;;
11141;SDS011;5625;50.122;19.864;2022-09-29T04:28:07;11.90;;;10.70;;
11141;SDS011;5625;50.122;19.864;2022-09-29T04:30:37;12.03;;;10.77;;
11141;SDS011;5625;50.122;19.864;2022-09-29T04:33:05;11.43;;;10.20;;
11141;SDS011;5625;50.122;19.864;2022-09-29T04:35:33;12.73;;;10.13;;
11141;SDS011;5625;50.122;19.864;2022-09-29T04:38:02;10.70;;;9.70;;
11141;SDS011;5625;50.122;19.864;2022-09-29T04:40:33;12.27;;;10.97;;
11141;SDS011;5625;50.122;19.864;2022-09-29T04:43:01;11.03;;;9.90;;
11141;SDS011;5625;50.122;19.864;2022-09-29T04:45:30;11.93;;;9.47;;
11141;SDS011;5625;50.122;19.864;2022-09-29T04:48:00;11.73;;;10.30;;
11141;SDS011;5625;50.122;19.864;2022-09-29T04:50:28;10.50;;;9.50;;
11141;SDS011;5625;50.122;19.864;2022-09-29T04:52:56;11.17;;;10.10;;
11141;SDS011;5625;50.122;19.864;2022-09-29T04:55:24;13.30;;;9.97;;
11141;SDS011;5625;50.122;19.864;2022-09-29T04:57:52;14.10;;;10.50;;
11141;SDS011;5625;50.122;19.864;2022-09-29T05:00:20;12.07;;;10.20;;
11141;SDS011;5625;50.122;19.864;2022-09-29T05:02:49;12.50;;;10.63;;
11141;SDS011;5625;50.122;19.864;2022-09-29T05:05:18;11.07;;;9.97;;
11141;SDS011;5625;50.122;19.864;2022-09-29T05:07:46;10.33;;;9.23;;
11141;SDS011;5625;50.122;19.864;2022-09-29T05:10:14;10.73;;;9.60;;
11141;SDS011;5625;50.122;19.864;2022-09-29T05:12:46;12.47;;;10.00;;
11141;SDS011;5625;50.122;19.864;2022-09-29T05:15:16;10.77;;;9.67;;
11141;SDS011;5625;50.122;19.864;2022-09-29T05:17:51;10.77;;;9.67;;
11141;SDS011;5625;50.122;19.864;2022-09-29T05:20:20;12.03;;;10.60;;
11141;SDS011;5625;50.122;19.864;2022-09-29T05:22:48;12.97;;;10.20;;
11141;SDS011;5625;50.122;19.864;2022-09-29T05:25:16;12.47;;;9.63;;
11141;SDS011;5625;50.122;19.864;2022-09-29T05:27:44;11.67;;;10.07;;
11141;SDS011;5625;50.122;19.864;2022-09-29T05:30:12;10.77;;;9.67;;
11141;SDS011;5625;50.122;19.864;2022-09-29T05:32:41;13.40;;;10.47;;
11141;SDS011;5625;50.122;19.864;2022-09-29T05:35:11;10.57;;;9.57;;
11141;SDS011;5625;50.122;19.864;2022-09-29T05:37:40;11.40;;;10.20;;
11141;SDS011;5625;50.122;19.864;2022-09-29T05:40:08;12.60;;;10.07;;
11141;SDS011;5625;50.122;19.864;2022-09-29T05:42:36;11.17;;;9.80;;
11141;SDS011;5625;50.122;19.864;2022-09-29T05:45:06;12.53;;;10.67;;
11141;SDS011;5625;50.122;19.864;2022-09-29T05:47:35;12.00;;;10.57;;
11141;SDS011;5625;50.122;19.864;2022-09-29T05:50:03;10.50;;;9.60;;
11141;SDS011;5625;50.122;19.864;2022-09-29T05:52:33;11.20;;;10.03;;
11141;SDS011;5625;50.122;19.864;2022-09-29T05:55:03;13.97;;;9.60;;
11141;SDS011;5625;50.122;19.864;2022-09-29T05:57:34;11.93;;;9.93;;
11141;SDS011;5625;50.122;19.864;2022-09-29T06:00:05;11.27;;;9.93;;
11141;SDS011;5625;50.122;19.864;2022-09-29T06:02:34;11.27;;;9.80;;
11141;SDS011;5625;50.122;19.864;2022-09-29T06:05:02;10.17;;;9.00;;
11141;SDS011;5625;50.122;19.864;2022-09-29T06:07:32;12.70;;;8.83;;
11141;SDS011;5625;50.122;19.864;2022-09-29T06:10:00;10.70;;;9.60;;
11141;SDS011;5625;50.122;19.864;2022-09-29T06:12:29;12.73;;;9.27;;
11141;SDS011;5625;50.122;19.864;2022-09-29T06:15:00;11.93;;;9.73;;
11141;SDS011;5625;50.122;19.864;2022-09-29T06:17:29;10.43;;;9.30;;
11141;SDS011;5625;50.122;19.864;2022-09-29T06:19:57;10.77;;;9.47;;
11141;SDS011;5625;50.122;19.864;2022-09-29T06:22:25;9.87;;;8.83;;
11141;SDS011;5625;50.122;19.864;2022-09-29T06:24:53;10.27;;;9.20;;
11141;SDS011;5625;50.122;19.864;2022-09-29T06:27:21;9.07;;;8.23;;
11141;SDS011;5625;50.122;19.864;2022-09-29T06:29:51;9.73;;;8.73;;
11141;SDS011;5625;50.122;19.864;2022-09-29T06:32:20;10.60;;;9.17;;
11141;SDS011;5625;50.122;19.864;2022-09-29T06:34:48;10.67;;;8.30;;
11141;SDS011;5625;50.122;19.864;2022-09-29T06:37:33;8.83;;;7.00;;
11141;SDS011;5625;50.122;19.864;2022-09-29T06:40:02;9.93;;;7.43;;
11141;SDS011;5625;50.122;19.864;2022-09-29T06:42:36;8.60;;;7.73;;
11141;SDS011;5625;50.122;19.864;2022-09-29T06:45:07;9.33;;;8.00;;
11141;SDS011;5625;50.122;19.864;2022-09-29T06:47:37;9.37;;;8.43;;
11141;SDS011;5625;50.122;19.864;2022-09-29T06:50:05;9.50;;;7.90;;
11141;SDS011;5625;50.122;19.864;2022-09-29T06:52:44;9.97;;;8.90;;
11141;SDS011;5625;50.122;19.864;2022-09-29T06:55:27;13.00;;;10.33;;
11141;SDS011;5625;50.122;19.864;2022-09-29T06:57:55;11.43;;;10.27;;
11141;SDS011;5625;50.122;19.864;2022-09-29T07:00:30;11.20;;;10.10;;
11141;SDS011;5625;50.122;19.864;2022-09-29T07:03:00;11.30;;;10.10;;
11141;SDS011;5625;50.122;19.864;2022-09-29T07:05:28;12.60;;;11.27;;
11141;SDS011;5625;50.122;19.864;2022-09-29T07:07:56;12.00;;;10.80;;
11141;SDS011;5625;50.122;19.864;2022-09-29T07:10:26;12.83;;;10.77;;
11141;SDS011;5625;50.122;19.864;2022-09-29T07:12:55;11.40;;;10.30;;
11141;SDS011;5625;50.122;19.864;2022-09-29T07:15:23;10.43;;;9.10;;
11141;SDS011;5625;50.122;19.864;2022-09-29T07:17:58;10.77;;;8.00;;
11141;SDS011;5625;50.122;19.864;2022-09-29T07:20:27;10.03;;;8.67;;
11141;SDS011;5625;50.122;19.864;2022-09-29T07:22:56;11.10;;;8.47;;
11141;SDS011;5625;50.122;19.864;2022-09-29T07:25:25;9.30;;;8.40;;
11141;SDS011;5625;50.122;19.864;2022-09-29T07:28:13;9.93;;;8.90;;
11141;SDS011;5625;50.122;19.864;2022-09-29T07:30:41;10.90;;;9.80;;
11141;SDS011;5625;50.122;19.864;2022-09-29T07:33:10;12.70;;;9.17;;
11141;SDS011;5625;50.122;19.864;2022-09-29T07:35:38;10.40;;;9.07;;
11141;SDS011;5625;50.122;19.864;2022-09-29T07:38:06;13.87;;;11.03;;
11141;SDS011;5625;50.122;19.864;2022-09-29T07:40:34;11.03;;;9.03;;
11141;SDS011;5625;50.122;19.864;2022-09-29T07:43:03;11.83;;;9.63;;
11141;SDS011;5625;50.122;19.864;2022-09-29T07:45:32;12.03;;;10.70;;
11141;SDS011;5625;50.122;19.864;2022-09-29T07:48:00;10.77;;;9.57;;
11141;SDS011;5625;50.122;19.864;2022-09-29T07:50:30;12.43;;;9.43;;
11141;SDS011;5625;50.122;19.864;2022-09-29T07:52:58;10.07;;;8.80;;
11141;SDS011;5625;50.122;19.864;2022-09-29T07:55:26;10.23;;;9.13;;
11141;SDS011;5625;50.122;19.864;2022-09-29T07:57:54;9.93;;;7.20;;
11141;SDS011;5625;50.122;19.864;2022-09-29T08:00:24;8.50;;;7.17;;
11141;SDS011;5625;50.122;19.864;2022-09-29T08:02:52;9.97;;;7.53;;
11141;SDS011;5625;50.122;19.864;2022-09-29T08:05:20;11.87;;;9.13;;
11141;SDS011;5625;50.122;19.864;2022-09-29T08:07:51;10.90;;;8.37;;
11141;SDS011;5625;50.122;19.864;2022-09-29T08:10:19;9.03;;;8.03;;
11141;SDS011;5625;50.122;19.864;2022-09-29T08:12:47;10.40;;;9.30;;
11141;SDS011;5625;50.122;19.864;2022-09-29T08:15:15;12.17;;;9.70;;
11141;SDS011;5625;50.122;19.864;2022-09-29T08:17:43;9.50;;;8.60;;
11141;SDS011;5625;50.122;19.864;2022-09-29T08:20:12;12.47;;;9.63;;
11141;SDS011;5625;50.122;19.864;2022-09-29T08:22:40;9.33;;;8.40;;
11141;SDS011;5625;50.122;19.864;2022-09-29T08:25:09;10.17;;;8.50;;
11141;SDS011;5625;50.122;19.864;2022-09-29T08:27:38;9.67;;;7.83;;
11141;SDS011;5625;50.122;19.864;2022-09-29T08:30:20;9.87;;;7.10;;
11141;SDS011;5625;50.122;19.864;2022-09-29T08:32:51;9.10;;;6.83;;
11141;SDS011;5625;50.122;19.864;2022-09-29T08:35:20;7.60;;;6.50;;
11141;SDS011;5625;50.122;19.864;2022-09-29T08:37:48;7.87;;;6.60;;
11141;SDS011;5625;50.122;19.864;2022-09-29T08:40:17;6.73;;;6.03;;
11141;SDS011;5625;50.122;19.864;2022-09-29T08:42:48;7.00;;;6.10;;
11141;SDS011;5625;50.122;19.864;2022-09-29T08:45:26;8.33;;;5.80;;
11141;SDS011;5625;50.122;19.864;2022-09-29T08:48:00;6.40;;;5.70;;
11141;SDS011;5625;50.122;19.864;2022-09-29T08:50:47;6.03;;;4.90;;
11141;SDS011;5625;50.122;19.864;2022-09-29T08:53:21;5.13;;;4.63;;
11141;SDS011;5625;50.122;19.864;2022-09-29T08:55:57;5.17;;;4.53;;
11141;SDS011;5625;50.122;19.864;2022-09-29T08:58:28;4.27;;;3.87;;
11141;SDS011;5625;50.122;19.864;2022-09-29T09:01:02;3.70;;;3.30;;
11141;SDS011;5625;50.122;19.864;2022-09-29T09:03:45;3.53;;;2.63;;
11141;SDS011;5625;50.122;19.864;2022-09-29T09:06:34;3.17;;;2.60;;
11141;SDS011;5625;50.122;19.864;2022-09-29T09:09:13;3.67;;;2.40;;
11141;SDS011;5625;50.122;19.864;2022-09-29T09:12:02;1.93;;;1.40;;
11141;SDS011;5625;50.122;19.864;2022-09-29T09:14:52;1.77;;;1.40;;
11141;SDS011;5625;50.122;19.864;2022-09-29T09:17:35;2.07;;;1.70;;
11141;SDS011;5625;50.122;19.864;2022-09-29T09:20:17;1.70;;;1.60;;
11141;SDS011;5625;50.122;19.864;2022-09-29T09:22:54;2.00;;;1.80;;
11141;SDS011;5625;50.122;19.864;2022-09-29T09:25:28;2.13;;;1.93;;
11141;SDS011;5625;50.122;19.864;2022-09-29T09:28:01;3.37;;;2.10;;
11141;SDS011;5625;50.122;19.864;2022-09-29T09:30:37;2.20;;;2.00;;
11141;SDS011;5625;50.122;19.864;2022-09-29T09:33:11;2.07;;;1.97;;
11141;SDS011;5625;50.122;19.864;2022-09-29T09:35:57;2.43;;;1.50;;
11141;SDS011;5625;50.122;19.864;2022-09-29T09:38:36;2.03;;;1.30;;
11141;SDS011;5625;50.122;19.864;2022-09-29T09:41:13;1.20;;;1.10;;
11141;SDS011;5625;50.122;19.864;2022-09-29T09:43:46;1.00;;;1.00;;
11141;SDS011;5625;50.122;19.864;2022-09-29T09:46:19;3.53;;;1.10;;
11141;SDS011;5625;50.122;19.864;2022-09-29T09:48:57;1.90;;;1.20;;
11141;SDS011;5625;50.122;19.864;2022-09-29T09:51:33;1.10;;;1.00;;
11141;SDS011;5625;50.122;19.864;2022-09-29T09:54:12;0.80;;;0.80;;
11141;SDS011;5625;50.122;19.864;2022-09-29T09:56:52;1.10;;;1.00;;
11141;SDS011;5625;50.122;19.864;2022-09-29T09:59:42;0.73;;;0.73;;
11141;SDS011;5625;50.122;19.864;2022-09-29T10:02:22;1.17;;;0.77;;
11141;SDS011;5625;50.122;19.864;2022-09-29T10:04:51;0.87;;;0.83;;
11141;SDS011;5625;50.122;19.864;2022-09-29T10:07:21;0.80;;;0.80;;
11141;SDS011;5625;50.122;19.864;2022-09-29T10:09:54;0.90;;;0.90;;
11141;SDS011;5625;50.122;19.864;2022-09-29T10:12:23;0.90;;;0.90;;
11141;SDS011;5625;50.122;19.864;2022-09-29T10:14:53;0.80;;;0.80;;
11141;SDS011;5625;50.122;19.864;2022-09-29T10:17:26;0.93;;;0.93;;
11141;SDS011;5625;50.122;19.864;2022-09-29T10:20:00;1.60;;;1.13;;
11141;SDS011;5625;50.122;19.864;2022-09-29T10:22:30;1.60;;;1.20;;
11141;SDS011;5625;50.122;19.864;2022-09-29T10:25:05;1.63;;;1.17;;
11141;SDS011;5625;50.122;19.864;2022-09-29T10:27:35;1.50;;;1.40;;
11141;SDS011;5625;50.122;19.864;2022-09-29T10:30:16;1.10;;;1.10;;
11141;SDS011;5625;50.122;19.864;2022-09-29T10:32:47;1.40;;;1.30;;
11141;SDS011;5625;50.122;19.864;2022-09-29T10:35:18;1.60;;;1.50;;
11141;SDS011;5625;50.122;19.864;2022-09-29T10:37:52;1.80;;;1.50;;
11141;SDS011;5625;50.122;19.864;2022-09-29T10:40:27;1.07;;;1.03;;
11141;SDS011;5625;50.122;19.864;2022-09-29T10:42:56;1.67;;;1.17;;
11141;SDS011;5625;50.122;19.864;2022-09-29T10:45:26;2.23;;;1.20;;
11141;SDS011;5625;50.122;19.864;2022-09-29T10:48:08;2.90;;;1.20;;
11141;SDS011;5625;50.122;19.864;2022-09-29T10:50:47;1.87;;;1.13;;
11141;SDS011;5625;50.122;19.864;2022-09-29T10:53:18;2.03;;;1.23;;
11141;SDS011;5625;50.122;19.864;2022-09-29T10:55:52;1.27;;;1.17;;
11141;SDS011;5625;50.122;19.864;2022-09-29T10:58:23;1.43;;;1.03;;
11141;SDS011;5625;50.122;19.864;2022-09-29T11:01:15;1.43;;;1.00;;
11141;SDS011;5625;50.122;19.864;2022-09-29T11:03:46;1.00;;;0.70;;
11141;SDS011;5625;50.122;19.864;2022-09-29T11:06:16;0.87;;;0.83;;
11141;SDS011;5625;50.122;19.864;2022-09-29T11:08:57;1.00;;;0.93;;
11141;SDS011;5625;50.122;19.864;2022-09-29T11:11:28;0.80;;;0.80;;
11141;SDS011;5625;50.122;19.864;2022-09-29T11:13:57;0.80;;;0.80;;
11141;SDS011;5625;50.122;19.864;2022-09-29T11:16:28;0.87;;;0.87;;
11141;SDS011;5625;50.122;19.864;2022-09-29T11:19:00;0.90;;;0.90;;
11141;SDS011;5625;50.122;19.864;2022-09-29T11:21:45;0.50;;;0.50;;
11141;SDS011;5625;50.122;19.864;2022-09-29T11:27:43;0.83;;;0.80;;
11141;SDS011;5625;50.122;19.864;2022-09-29T11:30:20;0.80;;;0.80;;
11141;SDS011;5625;50.122;19.864;2022-09-29T11:35:47;1.50;;;1.27;;
11141;SDS011;5625;50.122;19.864;2022-09-29T11:38:25;0.90;;;0.90;;
11141;SDS011;5625;50.122;19.864;2022-09-29T11:41:08;1.33;;;1.10;;
11141;SDS011;5625;50.122;19.864;2022-09-29T11:43:49;1.43;;;1.33;;
11141;SDS011;5625;50.122;19.864;2022-09-29T11:46:28;1.67;;;1.20;;
11141;SDS011;5625;50.122;19.864;2022-09-29T11:49:11;1.93;;;1.33;;
11141;SDS011;5625;50.122;19.864;2022-09-29T11:51:53;3.03;;;1.20;;
11141;SDS011;5625;50.122;19.864;2022-09-29T11:54:35;1.60;;;1.50;;
11141;SDS011;5625;50.122;19.864;2022-09-29T11:57:26;1.73;;;1.37;;
11141;SDS011;5625;50.122;19.864;2022-09-29T12:00:02;1.53;;;1.40;;
11141;SDS011;5625;50.122;19.864;2022-09-29T12:02:40;2.73;;;1.50;;
11141;SDS011;5625;50.122;19.864;2022-09-29T12:05:34;3.13;;;1.73;;
11141;SDS011;5625;50.122;19.864;2022-09-29T12:08:12;3.40;;;1.60;;
11141;SDS011;5625;50.122;19.864;2022-09-29T12:10:53;2.73;;;1.63;;
11141;SDS011;5625;50.122;19.864;2022-09-29T12:13:47;2.07;;;1.80;;
11141;SDS011;5625;50.122;19.864;2022-09-29T12:16:21;2.80;;;1.87;;
11141;SDS011;5625;50.122;19.864;2022-09-29T12:18:53;2.73;;;2.20;;
11141;SDS011;5625;50.122;19.864;2022-09-29T12:21:29;4.17;;;1.93;;
11141;SDS011;5625;50.122;19.864;2022-09-29T12:24:03;1.90;;;1.73;;
11141;SDS011;5625;50.122;19.864;2022-09-29T12:26:36;2.77;;;1.70;;
11141;SDS011;5625;50.122;19.864;2022-09-29T12:29:06;2.23;;;1.67;;
11141;SDS011;5625;50.122;19.864;2022-09-29T12:31:45;2.60;;;2.10;;
11141;SDS011;5625;50.122;19.864;2022-09-29T12:34:18;3.10;;;1.93;;
11141;SDS011;5625;50.122;19.864;2022-09-29T12:36:52;3.10;;;2.10;;
11141;SDS011;5625;50.122;19.864;2022-09-29T12:39:40;2.60;;;2.40;;
11141;SDS011;5625;50.122;19.864;2022-09-29T12:42:16;4.37;;;1.97;;
11141;SDS011;5625;50.122;19.864;2022-09-29T12:45:00;5.33;;;2.40;;
11141;SDS011;5625;50.122;19.864;2022-09-29T12:47:45;3.80;;;1.80;;
11141;SDS011;5625;50.122;19.864;2022-09-29T12:50:21;3.60;;;2.50;;
11141;SDS011;5625;50.122;19.864;2022-09-29T12:52:56;2.97;;;2.07;;
11141;SDS011;5625;50.122;19.864;2022-09-29T12:55:37;4.93;;;2.43;;
11141;SDS011;5625;50.122;19.864;2022-09-29T12:58:20;3.00;;;2.07;;
11141;SDS011;5625;50.122;19.864;2022-09-29T13:00:54;3.23;;;2.30;;
11141;SDS011;5625;50.122;19.864;2022-09-29T13:03:42;3.03;;;2.00;;
11141;SDS011;5625;50.122;19.864;2022-09-29T13:06:47;3.77;;;2.37;;
11141;SDS011;5625;50.122;19.864;2022-09-29T13:18:20;2.97;;;2.70;;
11141;SDS011;5625;50.122;19.864;2022-09-29T13:21:07;7.83;;;4.93;;
11141;SDS011;5625;50.122;19.864;2022-09-29T13:23:56;7.23;;;6.23;;
11141;SDS011;5625;50.122;19.864;2022-09-29T13:26:39;9.83;;;7.47;;
11141;SDS011;5625;50.122;19.864;2022-09-29T13:29:17;9.67;;;7.23;;
11141;SDS011;5625;50.122;19.864;2022-09-29T13:31:49;10.87;;;6.30;;
11141;SDS011;5625;50.122;19.864;2022-09-29T13:34:23;8.43;;;5.73;;
11141;SDS011;5625;50.122;19.864;2022-09-29T13:37:10;7.60;;;4.90;;
11141;SDS011;5625;50.122;19.864;2022-09-29T13:39:40;7.73;;;5.50;;
11141;SDS011;5625;50.122;19.864;2022-09-29T13:42:25;9.47;;;6.57;;
11141;SDS011;5625;50.122;19.864;2022-09-29T13:54:24;8.00;;;6.80;;
11141;SDS011;5625;50.122;19.864;2022-09-29T13:57:17;8.77;;;6.90;;
11141;SDS011;5625;50.122;19.864;2022-09-29T14:05:55;8.03;;;5.83;;
11141;SDS011;5625;50.122;19.864;2022-09-29T14:08:49;8.07;;;6.10;;
11141;SDS011;5625;50.122;19.864;2022-09-29T14:11:21;6.43;;;5.40;;
11141;SDS011;5625;50.122;19.864;2022-09-29T14:13:57;10.60;;;5.80;;
11141;SDS011;5625;50.122;19.864;2022-09-29T14:16:43;8.80;;;5.70;;
11141;SDS011;5625;50.122;19.864;2022-09-29T14:19:24;9.70;;;5.43;;
11141;SDS011;5625;50.122;19.864;2022-09-29T14:22:03;8.23;;;5.20;;
11141;SDS011;5625;50.122;19.864;2022-09-29T14:24:42;8.33;;;4.47;;
11141;SDS011;5625;50.122;19.864;2022-09-29T14:30:15;5.97;;;4.33;;
11141;SDS011;5625;50.122;19.864;2022-09-29T14:32:50;8.10;;;4.10;;
11141;SDS011;5625;50.122;19.864;2022-09-29T14:35:22;5.63;;;3.53;;
11141;SDS011;5625;50.122;19.864;2022-09-29T14:37:59;3.70;;;3.07;;
11141;SDS011;5625;50.122;19.864;2022-09-29T14:40:30;5.83;;;4.00;;
11141;SDS011;5625;50.122;19.864;2022-09-29T14:43:12;4.60;;;4.20;;
11141;SDS011;5625;50.122;19.864;2022-09-29T14:49:00;6.40;;;4.77;;
11141;SDS011;5625;50.122;19.864;2022-09-29T14:52:10;6.60;;;5.27;;
11141;SDS011;5625;50.122;19.864;2022-09-29T14:54:45;7.07;;;5.33;;
11141;SDS011;5625;50.122;19.864;2022-09-29T14:57:25;7.53;;;4.67;;
11141;SDS011;5625;50.122;19.864;2022-09-29T15:00:03;8.60;;;5.10;;
11141;SDS011;5625;50.122;19.864;2022-09-29T15:02:40;5.13;;;4.20;;
11141;SDS011;5625;50.122;19.864;2022-09-29T15:05:23;6.33;;;5.00;;
11141;SDS011;5625;50.122;19.864;2022-09-29T15:07:56;7.77;;;5.33;;
11141;SDS011;5625;50.122;19.864;2022-09-29T15:10:26;5.50;;;4.60;;
11141;SDS011;5625;50.122;19.864;2022-09-29T15:15:45;7.47;;;4.20;;
11141;SDS011;5625;50.122;19.864;2022-09-29T15:18:19;8.30;;;4.40;;
11141;SDS011;5625;50.122;19.864;2022-09-29T15:21:01;6.60;;;5.00;;
11141;SDS011;5625;50.122;19.864;2022-09-29T15:26:40;5.67;;;4.20;;
11141;SDS011;5625;50.122;19.864;2022-09-29T15:29:09;7.40;;;4.80;;
11141;SDS011;5625;50.122;19.864;2022-09-29T15:31:43;9.53;;;5.97;;
11141;SDS011;5625;50.122;19.864;2022-09-29T15:34:13;8.03;;;5.13;;
11141;SDS011;5625;50.122;19.864;2022-09-29T15:36:46;7.17;;;4.87;;
11141;SDS011;5625;50.122;19.864;2022-09-29T15:42:14;7.70;;;5.60;;
11141;SDS011;5625;50.122;19.864;2022-09-29T15:44:45;8.87;;;5.40;;
11141;SDS011;5625;50.122;19.864;2022-09-29T15:47:21;6.50;;;4.70;;
11141;SDS011;5625;50.122;19.864;2022-09-29T15:49:53;7.87;;;4.70;;
11141;SDS011;5625;50.122;19.864;2022-09-29T15:52:22;11.47;;;4.80;;
11141;SDS011;5625;50.122;19.864;2022-09-29T15:54:53;7.83;;;3.87;;
11141;SDS011;5625;50.122;19.864;2022-09-29T15:57:30;5.90;;;4.20;;
11141;SDS011;5625;50.122;19.864;2022-09-29T16:03:24;5.80;;;4.37;;
11141;SDS011;5625;50.122;19.864;2022-09-29T16:06:00;3.80;;;3.33;;
11141;SDS011;5625;50.122;19.864;2022-09-29T16:08:36;3.50;;;3.20;;